Flight Track Log - Related Links

Times and Time Zones

All times are in EDT time to prevent confusion due to time zone crossing. See the DAL268 flight status page for this flight to view local times or setup timezone preferences in your user account.

Time Position Orientation Groundspeed Altitude Reporting Facility
EDT Latitude Longitude Course Direction KTS MPH feet Rate Location/Type
Sat 02:26:23 PM 37.6337 -122.3630 38° Northeast 177 204 600  Level FlightAware ADS-B
Sat 02:26:27 PM 37.6359 -122.3610 36° Northeast 178 205 700 2,250 Climbing FlightAware ADS-B
Sat 02:26:31 PM 37.6387 -122.3570 49° Northeast 180 207 900 3,333 Climbing FlightAware ADS-B
Sat 02:26:36 PM 37.6416 -122.3530 48° Northeast 180 207 1,200 2,842 Climbing FlightAware ADS-B
Sat 02:26:50 PM 37.6494 -122.3420 48° Northeast 185 213 1,800 2,182 Climbing FlightAware ADS-B
Sat 02:26:58 PM 37.6535 -122.3360 49° Northeast 193 222 2,000 1,385 Climbing FlightAware ADS-B
Sat 02:27:03 PM 37.6568 -122.3310 50° Northeast 200 230 2,100 1,714 Climbing FlightAware ADS-B
Sat 02:27:19 PM 37.6666 -122.3170 49° Northeast 221 254 2,600 1,778 Climbing FlightAware ADS-B
Sat 02:27:30 PM 37.6740 -122.3060 50° Northeast 233 268 2,900 1,846 Climbing FlightAware ADS-B
Sat 02:27:45 PM 37.6852 -122.2890 50° Northeast 253 291 3,400 2,057 Climbing FlightAware ADS-B
Sat 02:28:05 PM 37.7014 -122.2650 50° Northeast 273 314 4,100 2,923 Climbing FlightAware ADS-B
Sat 02:28:24 PM 37.7182 -122.2450 43° Northeast 271 312 5,300 3,692 Climbing FlightAware ADS-B
Sat 02:28:44 PM 37.7380 -122.2250 39° Northeast 268 308 6,500 3,240 Climbing FlightAware ADS-B
Sat 02:29:14 PM 37.7682 -122.1960 37° Northeast 276 318 8,000 3,000 Climbing FlightAware ADS-B
Sat 02:29:30 PM 37.7849 -122.1800 37° Northeast 280 322 8,800 2,667 Climbing FlightAware ADS-B
Sat 02:29:50 PM 37.8060 -122.1600 37° Northeast 283 326 9,600 2,000 Climbing FlightAware ADS-B
Sat 02:30:21 PM 37.8409 -122.1270 37° Northeast 319 367 10,500 1,452 Climbing FlightAware ADS-B
Sat 02:30:52 PM 37.8801 -122.0900 37° Northeast 359 413 11,100 1,258 Climbing FlightAware ADS-B
Sat 02:31:23 PM 37.9234 -122.0490 37° Northeast 388 447 11,800 1,781 Climbing FlightAware ADS-B
Sat 02:31:56 PM 37.9721 -122.0030 37° Northeast 400 460 13,000 2,430 Climbing FlightAware ADS-B
Sat 02:32:42 PM 38.0408 -121.9380 37° Northeast 408 470 15,000 2,529 Climbing FlightAware ADS-B
Sat 02:33:38 PM 38.1250 -121.8570 37° Northeast 412 474 17,300 2,283 Climbing FlightAware ADS-B
Sat 02:34:35 PM 38.2140 -121.7730 37° Northeast 425 489 19,300 1,837 Climbing FlightAware ADS-B
Sat 02:35:16 PM 38.2790 -121.7100 37° Northeast 441 507 20,300 1,579 Climbing FlightAware ADS-B
Sat 02:35:51 PM 38.3370 -121.6550 37° Northeast 451 519 21,300 1,725 Climbing FlightAware ADS-B
Sat 02:36:36 PM 38.4120 -121.5820 37° Northeast 461 531 22,600 1,644 Climbing FlightAware ADS-B
Sat 02:37:04 PM 38.4570 -121.5260 44° Northeast 474 545 23,300 1,448 Climbing FlightAware ADS-B
Sat 02:37:34 PM 38.4980 -121.4600 52° Northeast 483 556 24,000 1,500 Climbing FlightAware ADS-B
Sat 02:38:48 PM 38.5980 -121.2870 53° Northeast 498 573 25,900 1,514 Climbing FlightAware ADS-B
Sat 02:39:21 PM 38.6430 -121.2100 53° Northeast 504 580 26,700 1,377 Climbing FlightAware ADS-B
Sat 02:39:49 PM 38.6820 -121.1420 54° Northeast 508 585 27,300 1,350 Climbing FlightAware ADS-B
Sat 02:40:41 PM 38.7550 -121.0160 53° Northeast 515 593 28,500 1,630 Climbing FlightAware ADS-B
Sat 02:41:10 PM 38.7950 -120.9470 53° Northeast 510 587 29,500 1,932 Climbing FlightAware ADS-B
Sat 02:41:40 PM 38.8370 -120.8730 54° Northeast 505 581 30,400 1,733 Climbing FlightAware ADS-B
Sat 02:42:40 PM 38.9200 -120.7300 53° Northeast 499 574 32,100 1,636 Climbing FlightAware ADS-B
Sat 02:43:41 PM 39.0030 -120.5860 53° Northeast 489 563 33,700 1,468 Climbing FlightAware ADS-B
Sat 02:44:14 PM 39.0430 -120.5170 53° Northeast 487 560 34,400 867 Climbing FlightAware ADS-B
Sat 02:45:11 PM 39.1220 -120.3800 53° Northeast 489 563 35,000 400 Climbing FlightAware ADS-B
Sat 02:45:44 PM 39.1670 -120.3000 54° Northeast 488 562 35,000  Level FlightAware ADS-B
Sat 02:46:25 PM 39.2200 -120.2070 54° Northeast 490 564 35,000  Level FlightAware ADS-B
Sat 02:47:03 PM 39.2730 -120.1140 54° Northeast 495 570 35,000  Level FlightAware ADS-B
Sat 02:47:37 PM 39.3200 -120.0320 53° Northeast 495 570 35,000  Level FlightAware ADS-B
Sat 02:48:33 PM 39.3960 -119.8970 54° Northeast 492 566 35,000  Level FlightAware ADS-B
Sat 02:49:01 PM 39.4330 -119.8310 54° Northeast 492 566 35,000  Level FlightAware ADS-B
Sat 02:49:38 PM 39.4820 -119.7430 54° Northeast 494 568 35,000 371 Level FlightAware ADS-B
Sat 02:50:38 PM 39.5600 -119.5990 55° Northeast 495 570 35,600 674 Climbing FlightAware ADS-B
Sat 02:51:07 PM 39.5910 -119.5230 62° Northeast 498 573 36,000 876 Climbing FlightAware ADS-B
Sat 02:52:07 PM 39.6550 -119.3610 63° Northeast 501 577 36,900 594 Climbing FlightAware ADS-B
Sat 02:52:48 PM 39.6990 -119.2500 63° Northeast 502 578 37,000 81 Climbing FlightAware ADS-B
Sat 02:53:21 PM 39.7320 -119.1630 64° Northeast 501 577 37,000  Level FlightAware ADS-B
Sat 02:54:26 PM 39.7990 -118.9910 63° Northeast 492 566 37,000  Level FlightAware ADS-B
Sat 02:55:03 PM 39.8370 -118.8930 63° Northeast 489 563 37,000  Level FlightAware ADS-B
Sat 02:55:38 PM 39.8710 -118.8040 64° Northeast 485 558 37,000  Level FlightAware ADS-B
Sat 02:56:34 PM 39.9280 -118.6550 63° Northeast 482 555 37,000  Level FlightAware ADS-B
Sat 02:57:06 PM 39.9590 -118.5730 64° Northeast 482 555 37,000  Level FlightAware ADS-B
Sat 02:57:39 PM 39.9920 -118.4860 64° Northeast 482 555 37,000  Level FlightAware ADS-B
Sat 02:58:50 PM 40.0600 -118.3050 64° Northeast 484 557 37,000  Level FlightAware ADS-B
Sat 02:59:21 PM 40.0920 -118.2200 64° Northeast 486 559 37,000  Level FlightAware ADS-B
Sat 03:00:26 PM 40.1500 -118.0700 63° Northeast 487 560 37,000  Level FlightAware ADS-B
Sat 03:01:27 PM 40.2030 -117.9340 63° Northeast 487 560 37,000  Level FlightAware ADS-B
Sat 03:02:30 PM 40.2580 -117.7930 63° Northeast 487 560 37,000  Level FlightAware ADS-B
Sat 03:02:54 PM 40.2790 -117.7400 63° Northeast 487 560 37,000  Level FlightAware ADS-B
Sat 03:04:04 PM 40.3400 -117.5830 63° Northeast 487 560 37,000  Level FlightAware ADS-B
Sat 03:04:52 PM 40.3810 -117.4750 63° Northeast 487 560 37,000  Level FlightAware ADS-B
Sat 03:05:40 PM 40.4230 -117.3680 63° Northeast 487 560 37,000  Level FlightAware ADS-B
Sat 03:06:16 PM 40.4540 -117.2870 63° Northeast 487 560 37,000  Level FlightAware ADS-B
Sat 03:07:18 PM 40.5080 -117.1480 63° Northeast 487 560 37,000  Level FlightAware ADS-B
Sat 03:08:20 PM 40.5620 -117.0090 63° Northeast 487 560 37,000  Level FlightAware ADS-B
Sat 03:08:57 PM 40.5940 -116.9260 63° Northeast 487 560 37,000  Level FlightAware ADS-B
Sat 03:09:31 PM 40.6240 -116.8490 63° Northeast 487 560 37,000  Level FlightAware ADS-B
Sat 03:13:44 PM 41.0155 -115.9110 61° Northeast 503 579 37,000  Level FlightAware ADS-B
Sat 03:14:14 PM 41.0315 -115.8220 77° East 501 577 37,000  Level FlightAware ADS-B
Sat 03:14:52 PM 41.0513 -115.7100 77° East 501 577 37,000  Level FlightAware ADS-B
Sat 03:15:06 PM 41.0585 -115.6681 77° East 502 578 37,000  Level FlightAware ADS-B
Sat 03:15:23 PM 41.0679 -115.6150 77° East 502 578 37,000  Level FlightAware ADS-B
Sat 03:15:42 PM 41.0774 -115.5597 77° East 501 577 37,000  Level FlightAware ADS-B
Sat 03:16:12 PM 41.0928 -115.4709 77° East 500 575 37,000  Level FlightAware ADS-B
Sat 03:16:34 PM 41.1042 -115.4050 77° East 499 574 37,000  Level FlightAware ADS-B
Sat 03:16:55 PM 41.1153 -115.3409 77° East 496 571 37,000  Level FlightAware ADS-B
Sat 03:17:05 PM 41.1200 -115.3130 77° East 497 572 37,000  Level FlightAware ADS-B
Sat 03:17:26 PM 41.1308 -115.2503 77° East 496 571 37,000  Level FlightAware ADS-B
Sat 03:17:35 PM 41.1353 -115.2240 77° East 497 572 37,000  Level FlightAware ADS-B
Sat 03:18:05 PM 41.1507 -115.1340 77° East 498 573 37,000  Level FlightAware ADS-B
Sat 03:18:12 PM 41.1542 -115.1132 77° East 497 572 37,000  Level FlightAware ADS-B
Sat 03:18:36 PM 41.1663 -115.0420 77° East 499 574 37,000  Level FlightAware ADS-B
Sat 03:18:42 PM 41.1694 -115.0236 77° East 497 572 37,000  Level FlightAware ADS-B
Sat 03:19:06 PM 41.1815 -114.9520 77° East 498 573 37,000  Level FlightAware ADS-B
Sat 03:19:18 PM 41.1872 -114.9180 77° East 496 571 37,000  Level FlightAware ADS-B
Sat 03:19:51 PM 41.2039 -114.8190 77° East 500 575 37,000  Level FlightAware ADS-B
Sat 03:19:57 PM 41.2068 -114.8011 78° East 498 573 37,000  Level FlightAware ADS-B
Sat 03:20:23 PM 41.2196 -114.7240 78° East 500 575 37,000  Level FlightAware ADS-B
Sat 03:20:38 PM 41.2273 -114.6784 77° East 498 573 37,000  Level FlightAware ADS-B
Sat 03:20:58 PM 41.2372 -114.6190 77° East 500 575 37,000  Level FlightAware ADS-B
Sat 03:21:09 PM 41.2425 -114.5860 78° East 499 574 37,000  Level FlightAware ADS-B
Sat 03:21:28 PM 41.2521 -114.5280 78° East 499 574 37,000  Level FlightAware ADS-B
Sat 03:21:59 PM 41.2671 -114.4360 78° East 498 573 37,000  Level FlightAware ADS-B
Sat 03:22:04 PM 41.2696 -114.4213 77° East 498 573 37,000  Level FlightAware ADS-B
Sat 03:22:29 PM 41.2819 -114.3460 78° East 500 575 37,000  Level FlightAware ADS-B
Sat 03:22:35 PM 41.2846 -114.3291 78° East 499 574 37,000  Level FlightAware ADS-B
Sat 03:22:59 PM 41.2966 -114.2550 78° East 501 577 37,000  Level FlightAware ADS-B
Sat 03:23:17 PM 41.3053 -114.2011 78° East 500 575 37,000  Level FlightAware ADS-B
Sat 03:23:34 PM 41.3133 -114.1520 78° East 501 577 37,000  Level FlightAware ADS-B
Sat 03:23:48 PM 41.3203 -114.1083 78° East 501 577 37,000  Level FlightAware ADS-B
Sat 03:24:04 PM 41.3279 -114.0610 78° East 503 579 37,000  Level FlightAware ADS-B
Sat 03:24:34 PM 41.3424 -113.9700 78° East 504 580 37,000  Level FlightAware ADS-B
Sat 03:24:35 PM 41.3427 -113.9679 79° East 501 577 37,000  Level FlightAware ADS-B
Sat 03:25:05 PM 41.3570 -113.8780 78° East 503 579 37,000  Level FlightAware ADS-B
Sat 03:25:25 PM 41.3666 -113.8170 78° East 503 579 37,000  Level FlightAware ADS-B
Sat 03:25:41 PM 41.3734 -113.7669 80° East 503 579 37,000  Level FlightAware ADS-B
Sat 03:25:56 PM 41.3792 -113.7210 80° East 504 580 37,000  Level FlightAware ADS-B
Sat 03:26:19 PM 41.3878 -113.6507 81° East 504 580 37,000  Level FlightAware ADS-B
Sat 03:26:28 PM 41.3911 -113.6240 81° East 504 580 37,000  Level FlightAware ADS-B
Sat 03:26:58 PM 41.4025 -113.5310 81° East 504 580 37,000  Level FlightAware ADS-B
Sat 03:27:02 PM 41.4039 -113.5210 80° East 504 580 37,000  Level FlightAware ADS-B
Sat 03:27:28 PM 41.4141 -113.4400 80° East 505 581 37,000  Level FlightAware ADS-B
Sat 03:27:32 PM 41.4154 -113.4290 81° East 505 581 37,000  Level FlightAware ADS-B
Sat 03:27:59 PM 41.4257 -113.3470 80° East 504 580 37,000  Level FlightAware ADS-B
Sat 03:28:17 PM 41.4311 -113.3045 80° East 503 579 37,000  Level FlightAware ADS-B
Sat 03:28:30 PM 41.4378 -113.2520 80° East 503 579 37,000  Level FlightAware ADS-B
Sat 03:28:50 PM 41.4456 -113.1899 81° East 503 579 37,000  Level FlightAware ADS-B
Sat 03:29:00 PM 41.4494 -113.1590 81° East 503 579 37,000  Level FlightAware ADS-B
Sat 03:29:32 PM 41.4612 -113.0640 81° East 504 580 37,000  Level FlightAware ADS-B
Sat 03:29:34 PM 41.4620 -113.0581 80° East 504 580 37,000  Level FlightAware ADS-B
Sat 03:30:02 PM 41.4727 -112.9710 81° East 504 580 37,000  Level FlightAware ADS-B
Sat 03:30:04 PM 41.4737 -112.9637 80° East 504 580 37,000  Level FlightAware ADS-B
Sat 03:30:45 PM 41.4889 -112.8391 81° East 503 579 37,000  Level FlightAware ADS-B
Sat 03:31:03 PM 41.4954 -112.7850 81° East 502 578 37,000  Level FlightAware ADS-B
Sat 03:31:17 PM 41.5007 -112.7411 81° East 503 579 37,000  Level FlightAware ADS-B
Sat 03:31:33 PM 41.5066 -112.6920 81° East 503 579 37,000  Level FlightAware ADS-B
Sat 03:31:52 PM 41.5133 -112.6364 81° East 502 578 37,000  Level FlightAware ADS-B
Sat 03:32:10 PM 41.5199 -112.5800 81° East 502 578 37,000  Level FlightAware ADS-B
Sat 03:32:11 PM 41.5202 -112.5781 79° East 501 577 37,000  Level FlightAware ADS-B
Sat 03:32:43 PM 41.5319 -112.4790 81° East 502 578 37,000  Level FlightAware ADS-B
Sat 03:32:50 PM 41.5343 -112.4576 81° East 501 577 37,000  Level FlightAware ADS-B
Sat 03:33:14 PM 41.5421 -112.3840 82° East 502 578 37,000  Level FlightAware ADS-B
Sat 03:33:25 PM 41.5457 -112.3501 82° East 501 577 37,000  Level FlightAware ADS-B
Sat 03:33:47 PM 41.5525 -112.2840 82° East 501 577 37,000  Level FlightAware ADS-B
Sat 03:33:55 PM 41.5551 -112.2592 82° East 501 577 37,000  Level FlightAware ADS-B
Sat 03:34:18 PM 41.5623 -112.1890 82° East 501 577 37,000  Level FlightAware ADS-B
Sat 03:34:39 PM 41.5688 -112.1255 82° East 500 575 37,000  Level FlightAware ADS-B
Sat 03:34:49 PM 41.5719 -112.0960 82° East 500 575 37,000  Level FlightAware ADS-B
Sat 03:35:10 PM 41.5784 -112.0321 82° East 500 575 37,000  Level FlightAware ADS-B
Sat 03:35:24 PM 41.5829 -111.9890 82° East 501 577 37,000  Level FlightAware ADS-B
Sat 03:35:51 PM 41.5915 -111.9049 82° East 503 579 37,000  Level FlightAware ADS-B
Sat 03:35:58 PM 41.5937 -111.8830 82° East 503 579 37,000  Level FlightAware ADS-B
Sat 03:36:23 PM 41.6016 -111.8065 82° East 503 579 37,000  Level FlightAware ADS-B
Sat 03:36:29 PM 41.6032 -111.7910 82° East 501 577 37,000  Level FlightAware ADS-B
Sat 03:37:01 PM 41.6131 -111.6930 82° East 501 577 37,000  Level FlightAware ADS-B
Sat 03:37:06 PM 41.6149 -111.6742 83° East 501 577 37,000  Level FlightAware ADS-B
Sat 03:37:31 PM 41.6224 -111.5990 82° East 501 577 37,000  Level FlightAware ADS-B
Sat 03:37:36 PM 41.6240 -111.5827 83° East 502 578 37,000  Level FlightAware ADS-B
Sat 03:38:01 PM 41.6315 -111.5060 83° East 504 580 37,000  Level FlightAware ADS-B
Sat 03:38:06 PM 41.6331 -111.4905 82° East 504 580 37,000  Level FlightAware ADS-B
Sat 03:38:32 PM 41.6409 -111.4100 83° East 506 582 37,000  Level FlightAware ADS-B
Sat 03:38:42 PM 41.6439 -111.3790 83° East 506 582 37,000  Level FlightAware ADS-B
Sat 03:39:03 PM 41.6501 -111.3150 83° East 507 583 37,000  Level FlightAware ADS-B
Sat 03:39:14 PM 41.6535 -111.2797 83° East 507 583 37,000  Level FlightAware ADS-B
Sat 03:39:33 PM 41.6591 -111.2210 83° East 508 585 37,000  Level FlightAware ADS-B
Sat 03:40:03 PM 41.6680 -111.1280 83° East 511 588 37,000  Level FlightAware ADS-B
Sat 03:40:34 PM 41.6769 -111.0330 83° East 511 588 37,000  Level FlightAware ADS-B
Sat 03:41:05 PM 41.6861 -110.9350 83° East 511 588 37,000  Level FlightAware ADS-B
Sat 03:41:36 PM 41.6951 -110.8380 83° East 512 589 37,000  Level FlightAware ADS-B
Sat 03:42:06 PM 41.7038 -110.7430 83° East 513 590 37,000  Level FlightAware ADS-B
Sat 03:42:45 PM 41.7130 -110.6850 78° East 511 588 37,000  Level FlightAware ADS-B
Sat 03:43:21 PM 41.7230 -110.5890 82° East 511 588 37,000  Level FlightAware ADS-B
Sat 03:44:21 PM 41.7400 -110.4290 82° East 511 588 37,000  Level FlightAware ADS-B
Sat 03:44:45 PM 41.7470 -110.3650 82° East 511 588 37,000  Level FlightAware ADS-B
Sat 03:45:46 PM 41.7640 -110.2030 82° East 511 588 37,000  Level FlightAware ADS-B
Sat 03:46:35 PM 41.7780 -110.0720 82° East 511 588 37,000  Level FlightAware ADS-B
Sat 03:47:33 PM 41.7940 -109.9170 82° East 511 588 37,000  Level FlightAware ADS-B
Sat 03:49:42 PM 41.8270 -109.2880 86° East 525 604 37,000  Level FlightAware ADS-B
Sat 03:50:17 PM 41.8360 -109.1740 84° East 525 604 37,000  Level FlightAware ADS-B
Sat 03:50:48 PM 41.8430 -109.0770 84° East 526 605 37,000  Level FlightAware ADS-B
Sat 03:51:38 PM 41.8560 -108.9150 84° East 526 605 37,000  Level FlightAware ADS-B
Sat 03:52:35 PM 41.8700 -108.7270 84° East 527 606 37,000  Level FlightAware ADS-B
Sat 03:53:03 PM 41.8760 -108.6370 85° East 528 608 37,000  Level FlightAware ADS-B
Sat 03:53:59 PM 41.8890 -108.4540 84° East 528 608 37,000  Level FlightAware ADS-B
Sat 03:54:26 PM 41.8950 -108.3690 85° East 529 609 37,000  Level FlightAware ADS-B
Sat 03:55:02 PM 41.9040 -108.2490 84° East 528 608 37,000  Level FlightAware ADS-B
Sat 03:55:58 PM 41.9160 -108.0700 85° East 528 608 37,000  Level FlightAware ADS-B
Sat 03:56:40 PM 41.9250 -107.9370 85° East 527 606 37,000  Level FlightAware ADS-B
Sat 03:57:32 PM 41.9360 -107.7930 84° East 527 606 37,000  Level FlightAware ADS-B
Sat 03:58:32 PM 41.9490 -107.6270 84° East 527 606 37,000  Level FlightAware ADS-B
Sat 03:58:57 PM 41.9540 -107.5570 84° East 527 606 37,000  Level FlightAware ADS-B
Sat 03:59:35 PM 41.9630 -107.4520 83° East 527 606 37,000  Level FlightAware ADS-B
Sat 04:00:11 PM 41.9700 -107.3520 85° East 527 606 37,000  Level FlightAware ADS-B
Sat 04:00:49 PM 41.9790 -107.2470 83° East 527 606 37,000  Level FlightAware ADS-B
Sat 04:01:13 PM 41.9840 -107.1800 84° East 527 606 37,000  Level FlightAware ADS-B
Sat 04:02:01 PM 41.9940 -107.0470 84° East 527 606 37,000  Level FlightAware ADS-B
Sat 04:02:38 PM 42.0020 -106.9440 84° East 527 606 37,000  Level FlightAware ADS-B
Sat 04:03:03 PM 42.0080 -106.8750 83° East 527 606 37,000  Level FlightAware ADS-B
Sat 04:03:39 PM 42.0150 -106.7750 85° East 527 606 37,000  Level FlightAware ADS-B
Sat 04:05:18 PM 42.0250 -106.2350 88° East 532 612 37,000  Level FlightAware ADS-B
Sat 04:05:50 PM 42.0300 -106.1320 86° East 532 612 37,000  Level FlightAware ADS-B
Sat 04:06:08 PM 42.0330 -106.0730 86° East 531 611 37,000  Level FlightAware ADS-B
Sat 04:07:15 PM 42.0440 -105.8530 86° East 535 616 37,000  Level FlightAware ADS-B
Sat 04:07:34 PM 42.0470 -105.7920 86° East 535 616 37,000  Level FlightAware ADS-B
Sat 04:08:20 PM 42.0540 -105.6390 86° East 533 613 37,000  Level FlightAware ADS-B
Sat 04:09:03 PM 42.0600 -105.5010 87° East 533 613 37,000  Level FlightAware ADS-B
Sat 04:09:43 PM 42.0660 -105.3620 87° East 532 612 37,000  Level FlightAware ADS-B
Sat 04:10:34 PM 42.0740 -105.1960 86° East 533 613 37,000  Level FlightAware ADS-B
Sat 04:11:03 PM 42.0810 -105.0970 85° East 536 617 37,000  Level FlightAware ADS-B
Sat 04:12:08 PM 42.0990 -104.8860 83° East 542 624 37,000  Level FlightAware ADS-B
Sat 04:12:48 PM 42.1090 -104.7720 83° East 542 624 37,000  Level FlightAware ADS-B
Sat 04:13:46 PM 42.1280 -104.5550 83° East 545 627 37,000  Level FlightAware ADS-B
Sat 04:14:37 PM 42.1420 -104.3830 84° East 544 626 37,000  Level FlightAware ADS-B
Sat 04:15:28 PM 42.1560 -104.2280 83° East 543 625 37,000  Level FlightAware ADS-B
Sat 04:16:14 PM 42.1680 -104.0960 83° East 543 625 37,000  Level FlightAware ADS-B
Sat 04:17:02 PM 42.1800 -103.9590 83° East 543 625 37,000  Level FlightAware ADS-B
Sat 04:18:02 PM 42.1960 -103.7870 83° East 543 625 37,000  Level FlightAware ADS-B
Sat 04:19:03 PM 42.2120 -103.6130 83° East 543 625 37,000  Level FlightAware ADS-B
Sat 04:19:39 PM 42.2210 -103.5100 83° East 543 625 37,000  Level FlightAware ADS-B
Sat 04:20:15 PM 42.2300 -103.4060 83° East 543 625 37,000  Level FlightAware ADS-B
Sat 04:21:16 PM 42.2460 -103.2320 83° East 543 625 37,000  Level FlightAware ADS-B
Sat 04:21:40 PM 42.2520 -103.1630 83° East 543 625 37,000  Level FlightAware ADS-B
Sat 04:23:41 PM 42.2770 -102.5950 86° East 533 613 37,000  Level FlightAware ADS-B
Sat 04:24:17 PM 42.2850 -102.4930 84° East 533 613 37,000  Level FlightAware ADS-B
Sat 04:24:54 PM 42.2930 -102.3890 84° East 533 613 37,000  Level FlightAware ADS-B
Sat 04:25:30 PM 42.3010 -102.2870 84° East 533 613 37,000  Level FlightAware ADS-B
Sat 04:26:18 PM 42.3110 -102.1520 84° East 533 613 37,000  Level FlightAware ADS-B
Sat 04:26:54 PM 42.3190 -102.0510 84° East 533 613 37,000  Level FlightAware ADS-B
Sat 04:27:18 PM 42.3250 -101.9830 83° East 533 613 37,000  Level FlightAware ADS-B
Sat 04:28:18 PM 42.3380 -101.8140 84° East 533 613 37,000  Level FlightAware ADS-B
Sat 04:29:06 PM 42.3480 -101.6780 84° East 533 613 37,000  Level FlightAware ADS-B
Sat 04:30:07 PM 42.3610 -101.5060 84° East 533 613 37,000  Level FlightAware ADS-B
Sat 04:30:42 PM 42.3690 -101.4080 84° East 533 613 37,000  Level FlightAware ADS-B
Sat 04:31:06 PM 42.3740 -101.3400 84° East 533 613 37,000  Level FlightAware ADS-B
Sat 04:31:42 PM 42.3820 -101.2380 84° East 533 613 37,000  Level FlightAware ADS-B
Sat 04:32:06 PM 42.3870 -101.1700 84° East 533 613 37,000  Level FlightAware ADS-B
Sat 04:32:55 PM 42.3980 -101.0320 84° East 533 613 37,000  Level FlightAware ADS-B
Sat 04:37:00 PM 42.4240 -99.9030 88° East 542 624 37,000  Level FlightAware ADS-B
Sat 04:38:18 PM 42.4360 -99.6380 86° East 543 625 37,000  Level FlightAware ADS-B
Sat 04:38:43 PM 42.4390 -99.5500 87° East 544 626 37,000  Level FlightAware ADS-B
Sat 04:39:16 PM 42.4440 -99.4380 87° East 544 626 37,000  Level FlightAware ADS-B
Sat 04:39:51 PM 42.4480 -99.3210 87° East 544 626 37,000  Level FlightAware ADS-B
Sat 04:40:28 PM 42.4530 -99.1950 87° East 544 626 37,000  Level FlightAware ADS-B
Sat 04:41:27 PM 42.4600 -98.9950 87° East 545 627 37,000  Level FlightAware ADS-B
Sat 04:41:54 PM 42.4630 -98.9050 87° East 546 628 37,000  Level FlightAware ADS-B
Sat 04:42:28 PM 42.4670 -98.7880 87° East 546 628 37,000  Level FlightAware ADS-B
Sat 04:42:58 PM 42.4710 -98.6890 87° East 547 629 37,000  Level FlightAware ADS-B
Sat 04:44:01 PM 42.4810 -98.4690 86° East 545 627 37,000  Level FlightAware ADS-B
Sat 04:44:53 PM 42.4900 -98.2940 86° East 546 628 37,000  Level FlightAware ADS-B
Sat 04:45:28 PM 42.4960 -98.1740 86° East 545 627 37,000  Level FlightAware ADS-B
Sat 04:46:03 PM 42.5010 -98.0540 87° East 545 627 37,000  Level FlightAware ADS-B
Sat 04:46:35 PM 42.5060 -97.9500 86° East 545 627 37,000  Level FlightAware ADS-B
Sat 04:47:16 PM 42.5120 -97.8080 87° East 544 626 37,000  Level FlightAware ADS-B
Sat 04:47:40 PM 42.5160 -97.7250 86° East 543 625 37,000  Level FlightAware ADS-B
Sat 04:48:41 PM 42.5240 -97.5170 87° East 541 623 37,000  Level FlightAware ADS-B
Sat 04:49:56 PM 42.5311 -97.3530 87° East 540 621 37,000  Level FlightAware ADS-B
Sat 04:51:16 PM 42.5450 -96.9950 87° East 537 618 37,000  Level FlightAware ADS-B
Sat 04:51:52 PM 42.5490 -96.8780 87° East 538 619 37,000  Level FlightAware ADS-B
Sat 04:52:33 PM 42.5540 -96.7390 87° East 539 620 37,000  Level FlightAware ADS-B
Sat 04:53:26 PM 42.5600 -96.5570 87° East 541 623 37,000  Level FlightAware ADS-B
Sat 04:54:15 PM 42.5650 -96.3940 88° East 542 624 37,000  Level FlightAware ADS-B
Sat 04:55:15 PM 42.5710 -96.1880 88° East 542 624 37,000  Level FlightAware ADS-B
Sat 04:55:47 PM 42.5740 -96.0790 88° East 544 626 37,000  Level FlightAware ADS-B
Sat 04:56:18 PM 42.5770 -95.9770 88° East 544 626 37,000  Level FlightAware ADS-B
Sat 04:56:48 PM 42.5800 -95.8730 88° East 545 627 37,000  Level FlightAware ADS-B
Sat 04:57:47 PM 42.5850 -95.6720 88° East 546 628 37,000  Level FlightAware ADS-B
Sat 04:58:43 PM 42.5900 -95.4870 88° East 547 629 37,000  Level FlightAware ADS-B
Sat 04:59:19 PM 42.5920 -95.3650 89° East 548 631 37,000 90 Level FlightAware ADS-B
Sat 04:59:50 PM 42.5950 -95.2590 88° East 548 631 37,100 818 Climbing FlightAware ADS-B
Sat 05:00:47 PM 42.5990 -95.0570 88° East 543 625 38,200 1,056 Climbing FlightAware ADS-B
Sat 05:01:38 PM 42.6020 -94.8850 89° East 540 621 39,000 565 Climbing FlightAware ADS-B
Sat 05:02:12 PM 42.6039 -94.7812 89° East 539 620 39,000  Level FlightAware ADS-B (LPVM)
Sat 05:02:56 PM 42.6070 -94.5942 89° East 544 626 39,000  Level FlightAware ADS-B (LPVM)
Sat 05:03:53 PM 42.6096 -94.4129 89° East 551 634 39,000  Level FlightAware ADS-B (LPVM)
Sat 05:04:36 PM 42.6110 -94.2790 89° East 554 638 39,000  Level FlightAware ADS-B
Sat 05:05:06 PM 42.6126 -94.1474 89° East 557 641 39,000  Level FlightAware ADS-B (LPVM)
Sat 05:06:26 PM 42.6140 -93.8990 89° East 559 643 39,000  Level FlightAware ADS-B
Sat 05:07:26 PM 42.6150 -93.6840 90° East 558 642 39,000  Level FlightAware ADS-B
Sat 05:08:16 PM 42.6160 -93.5070 90° East 557 641 39,000  Level FlightAware ADS-B
Sat 05:09:17 PM 42.6170 -93.3030 90° East 554 638 39,000  Level FlightAware ADS-B
Sat 05:09:41 PM 42.6170 -93.2190 90° East 553 636 39,000  Level FlightAware ADS-B
Sat 05:10:12 PM 42.6170 -93.1080 90° East 551 634 39,000  Level FlightAware ADS-B
Sat 05:10:48 PM 42.6170 -92.9910 90° East 549 632 39,000  Level FlightAware ADS-B
Sat 05:11:56 PM 42.6160 -92.7510 90° East 545 627 39,000  Level FlightAware ADS-B
Sat 05:12:23 PM 42.6160 -92.6560 90° East 545 627 39,000  Level FlightAware ADS-B
Sat 05:13:13 PM 42.6150 -92.4860 90° East 542 624 39,000  Level FlightAware ADS-B
Sat 05:14:02 PM 42.6134 -92.2979 91° East 540 621 39,000  Level FlightAware ADS-B (LPVM)
Sat 05:14:48 PM 42.6129 -92.2397 91° East 539 620 39,000  Level FlightAware ADS-B (LPVM)
Sat 05:15:49 PM 42.6103 -91.9619 91° East 535 616 39,000  Level FlightAware ADS-B (LPVM)
Sat 05:16:51 PM 42.6078 -91.7357 91° East 533 613 39,000  Level FlightAware ADS-B (LPVM)
Sat 05:17:32 PM 42.6059 -91.5938 91° East 531 611 39,000  Level FlightAware ADS-B (LPVM)
Sat 05:18:26 PM 42.6034 -91.4228 91° East 530 610 39,000  Level FlightAware ADS-B (LPVM)
Sat 05:19:26 PM 42.6001 -91.2214 91° East 528 608 39,000  Level FlightAware ADS-B (LPVM)
Sat 05:20:12 PM 42.5979 -91.0981 91° East 528 608 39,000  Level FlightAware ADS-B (LPVM)
Sat 05:20:44 PM 42.5954 -90.9580 91° East 529 609 39,000  Level FlightAware ADS-B (LPVM)
Sat 05:21:32 PM 42.5923 -90.8059 92° East 528 608 39,000  Level FlightAware ADS-B (LPVM)
Sat 05:22:03 PM 42.5900 -90.6951 92° East 530 610 39,000  Level FlightAware ADS-B (LPVM)
Sat 05:22:48 PM 42.5868 -90.5505 92° East 530 610 39,000  Level FlightAware ADS-B (LPVM)
Sat 05:23:30 PM 42.5840 -90.4350 92° East 530 610 39,000  Level FlightAware ADS-B
Sat 05:24:24 PM 42.5800 -90.2550 92° East 533 613 39,000  Level FlightAware ADS-B
Sat 05:24:58 PM 42.5770 -90.1420 92° East 535 616 39,000  Level FlightAware ADS-B
Sat 05:26:06 PM 42.5710 -89.9190 92° East 536 617 39,000  Level FlightAware ADS-B
Sat 05:27:06 PM 42.5650 -89.7130 92° East 535 616 39,000  Level FlightAware ADS-B
Sat 05:28:06 PM 42.5580 -89.5100 93° East 535 616 39,000  Level FlightAware ADS-B
Sat 05:29:02 PM 42.5520 -89.3270 92° East 536 617 39,000  Level FlightAware ADS-B
Sat 05:29:34 PM 42.5490 -89.2160 92° East 536 617 39,000  Level FlightAware ADS-B
Sat 05:30:43 PM 42.5410 -88.9890 93° East 536 617 39,000  Level FlightAware ADS-B
Sat 05:31:26 PM 42.5350 -88.8420 93° East 535 616 39,000  Level FlightAware ADS-B
Sat 05:32:22 PM 42.5280 -88.6520 93° East 535 616 39,000  Level FlightAware ADS-B
Sat 05:32:46 PM 42.5240 -88.5710 94° East 535 616 39,000  Level FlightAware ADS-B
Sat 05:33:30 PM 42.5180 -88.4240 93° East 535 616 39,000  Level FlightAware ADS-B
Sat 05:34:23 PM 42.5110 -88.2490 93° East 535 616 39,000  Level FlightAware ADS-B
Sat 05:35:11 PM 42.5040 -88.0920 93° East 536 617 39,000  Level FlightAware ADS-B
Sat 05:36:07 PM 42.5000 -87.9050 92° East 535 616 39,000  Level FlightAware ADS-B
Sat 05:36:55 PM 42.5000 -87.7370 90° East 535 616 39,000  Level FlightAware ADS-B
Sat 05:37:41 PM 42.4990 -87.5880 90° East 535 616 39,000  Level FlightAware ADS-B
Sat 05:38:29 PM 42.4990 -87.4280 90° East 534 615 39,000  Level FlightAware ADS-B
Sat 05:39:13 PM 42.4980 -87.2790 90° East 533 613 39,000  Level FlightAware ADS-B
Sat 05:40:13 PM 42.4970 -87.0860 90° East 530 610 39,000  Level FlightAware ADS-B
Sat 05:40:49 PM 42.4960 -86.9620 91° East 528 608 39,000  Level FlightAware ADS-B
Sat 05:41:37 PM 42.4940 -86.8070 91° East 526 605 39,000  Level FlightAware ADS-B
Sat 05:42:27 PM 42.4920 -86.6420 91° East 525 604 39,000  Level FlightAware ADS-B
Sat 05:42:56 PM 42.4910 -86.5470 91° East 523 602 39,000  Level FlightAware ADS-B
Sat 05:43:28 PM 42.4900 -86.4470 91° East 522 601 39,000  Level FlightAware ADS-B
Sat 05:44:27 PM 42.4870 -86.2520 91° East 520 598 39,000  Level FlightAware ADS-B
Sat 05:45:24 PM 42.4840 -86.0640 91° East 519 597 39,000  Level FlightAware ADS-B
Sat 05:46:12 PM 42.4820 -85.9130 91° East 518 596 39,000  Level FlightAware ADS-B
Sat 05:46:46 PM 42.4800 -85.7980 91° East 517 595 39,000  Level FlightAware ADS-B
Sat 05:47:47 PM 42.4760 -85.6000 92° East 518 596 39,000  Level FlightAware ADS-B
Sat 05:48:16 PM 42.4740 -85.5100 92° East 519 597 39,000  Level FlightAware ADS-B
Sat 05:48:55 PM 42.4710 -85.3810 92° East 520 598 39,000  Level FlightAware ADS-B
Sat 05:49:48 PM 42.4670 -85.2110 92° East 521 600 39,000  Level FlightAware ADS-B
Sat 05:50:12 PM 42.4650 -85.1340 92° East 521 600 39,000  Level FlightAware ADS-B
Sat 05:51:08 PM 42.4600 -84.9520 92° East 523 602 39,000  Level FlightAware ADS-B
Sat 05:52:09 PM 42.4550 -84.7540 92° East 524 603 39,000  Level FlightAware ADS-B
Sat 05:52:43 PM 42.4520 -84.6400 92° East 525 604 39,000  Level FlightAware ADS-B
Sat 05:53:28 PM 42.4470 -84.4880 93° East 526 605 39,000  Level FlightAware ADS-B
Sat 05:54:20 PM 42.4420 -84.3170 92° East 526 605 39,000  Level FlightAware ADS-B
Sat 05:55:08 PM 42.4370 -84.1610 92° East 527 606 39,000  Level FlightAware ADS-B
Sat 05:56:05 PM 42.4300 -83.9750 93° East 527 606 39,000  Level FlightAware ADS-B
Sat 05:57:01 PM 42.4240 -83.7940 93° East 527 606 39,000  Level FlightAware ADS-B
Sat 05:57:32 PM 42.4200 -83.6920 93° East 527 606 39,000  Level FlightAware ADS-B
Sat 05:58:05 PM 42.4120 -83.5850 96° East 526 605 39,000  Level FlightAware ADS-B
Sat 05:59:00 PM 42.3980 -83.4010 96° East 525 604 39,000  Level FlightAware ADS-B
Sat 05:59:37 PM 42.3890 -83.2820 96° East 524 603 39,000  Level FlightAware ADS-B
Sat 06:00:06 PM 42.3830 -83.1890 95° East 524 603 39,000  Level FlightAware ADS-B
Sat 06:01:09 PM 42.3680 -82.9850 96° East 521 600 39,000  Level FlightAware ADS-B
Sat 06:02:05 PM 42.3540 -82.8040 96° East 520 598 39,000  Level FlightAware ADS-B
Sat 06:02:34 PM 42.3470 -82.7060 95° East 519 597 39,000  Level FlightAware ADS-B
Sat 06:03:39 PM 42.3300 -82.4970 96° East 519 597 39,000  Level FlightAware ADS-B
Sat 06:04:38 PM 42.3150 -82.3100 96° East 519 597 39,000  Level FlightAware ADS-B
Sat 06:05:21 PM 42.3040 -82.1680 96° East 518 596 39,000  Level FlightAware ADS-B
Sat 06:05:49 PM 42.2960 -82.0780 97° East 518 596 39,000  Level FlightAware ADS-B
Sat 06:06:54 PM 42.2800 -81.8800 96° East 517 595 39,000  Level FlightAware ADS-B
Sat 06:07:46 PM 42.2650 -81.7030 96° East 516 594 39,000  Level FlightAware ADS-B
Sat 06:08:37 PM 42.2510 -81.5470 97° East 515 593 39,000  Level FlightAware ADS-B
Sat 06:09:22 PM 42.2390 -81.4120 97° East 515 593 39,000  Level FlightAware ADS-B
Sat 06:10:03 PM 42.2260 -81.2690 97° East 514 592 39,000  Level FlightAware ADS-B
Sat 06:10:35 PM 42.2170 -81.1670 97° East 513 590 39,000  Level FlightAware ADS-B
Sat 06:10:59 PM 42.2100 -81.0900 97° East 513 590 39,000  Level FlightAware ADS-B
Sat 06:11:45 PM 42.1970 -80.9450 97° East 514 592 39,000  Level FlightAware ADS-B
Sat 06:12:41 PM 42.1800 -80.7690 97° East 514 592 39,000  Level FlightAware ADS-B
Sat 06:13:12 PM 42.1720 -80.6820 97° East 515 593 39,000  Level FlightAware ADS-B
Sat 06:13:50 PM 42.1590 -80.5540 98° East 516 594 39,000  Level FlightAware ADS-B
Sat 06:14:27 PM 42.1470 -80.4310 97° East 517 595 39,000  Level FlightAware ADS-B
Sat 06:15:28 PM 42.1280 -80.2350 97° East 517 595 39,000  Level FlightAware ADS-B
Sat 06:16:23 PM 42.1110 -80.0640 98° East 517 595 39,000  Level FlightAware ADS-B
Sat 06:17:10 PM 42.0950 -79.9120 98° East 517 595 39,000  Level FlightAware ADS-B
Sat 06:18:14 PM 42.0740 -79.7090 98° East 516 594 39,000  Level FlightAware ADS-B
Sat 06:19:01 PM 42.0590 -79.5610 98° East 515 593 39,000  Level FlightAware ADS-B
Sat 06:19:46 PM 42.0440 -79.4160 98° East 515 593 39,000  Level FlightAware ADS-B
Sat 06:20:40 PM 42.0250 -79.2470 99° East 515 593 39,000  Level FlightAware ADS-B
Sat 06:21:39 PM 42.0050 -79.0610 98° East 516 594 39,000  Level FlightAware ADS-B
Sat 06:22:27 PM 41.9880 -78.9080 98° East 515 593 39,000  Level FlightAware ADS-B
Sat 06:22:55 PM 41.9780 -78.8190 99° East 515 593 39,000  Level FlightAware ADS-B
Sat 06:23:51 PM 41.9580 -78.6420 99° East 514 592 39,000  Level FlightAware ADS-B
Sat 06:24:36 PM 41.9420 -78.5030 99° East 513 590 39,000  Level FlightAware ADS-B
Sat 06:25:23 PM 41.9250 -78.3550 99° East 512 589 39,000  Level FlightAware ADS-B
Sat 06:26:25 PM 41.9020 -78.1620 99° East 509 586 39,000  Level FlightAware ADS-B
Sat 06:27:10 PM 41.8860 -78.0250 99° East 507 583 39,000  Level FlightAware ADS-B
Sat 06:28:09 PM 41.8600 -77.8420 101° East 500 575 39,000  Level FlightAware ADS-B
Sat 06:28:59 PM 41.8240 -77.6950 108° East 495 570 39,000  Level FlightAware ADS-B
Sat 06:29:48 PM 41.7860 -77.5510 109° East 492 566 39,000  Level FlightAware ADS-B
Sat 06:30:32 PM 41.7530 -77.4270 110° East 492 566 39,000  Level FlightAware ADS-B
Sat 06:31:22 PM 41.7140 -77.2830 110° East 493 567 39,000  Level FlightAware ADS-B
Sat 06:32:14 PM 41.6740 -77.1330 110° East 495 570 39,000  Level FlightAware ADS-B
Sat 06:33:06 PM 41.6330 -76.9830 110° East 498 573 39,000  Level FlightAware ADS-B
Sat 06:33:54 PM 41.5960 -76.8450 110° East 499 574 39,000  Level FlightAware ADS-B
Sat 06:34:28 PM 41.5690 -76.7470 110° East 499 574 39,000  Level FlightAware ADS-B
Sat 06:35:24 PM 41.5240 -76.5850 110° East 498 573 39,000  Level FlightAware ADS-B
Sat 06:36:12 PM 41.4860 -76.4460 110° East 496 571 39,000  Level FlightAware ADS-B
Sat 06:37:02 PM 41.4470 -76.3070 110° East 498 573 39,000 -385 Level FlightAware ADS-B
Sat 06:37:30 PM 41.4230 -76.2220 111° Southeast 498 573 38,500 -1,810 Descending FlightAware ADS-B
Sat 06:38:05 PM 41.3950 -76.1220 110° East 501 577 37,100 -2,455 Descending FlightAware ADS-B
Sat 06:38:58 PM 41.3520 -75.9690 110° East 505 581 34,900 -2,814 Descending FlightAware ADS-B
Sat 06:39:58 PM 41.3020 -75.7930 111° Southeast 508 585 31,800 -3,263 Descending FlightAware ADS-B
Sat 06:40:52 PM 41.2560 -75.6390 112° Southeast 504 580 28,700 -3,545 Descending FlightAware ADS-B
Sat 06:41:26 PM 41.2240 -75.5430 114° Southeast 501 577 26,600 -3,106 Descending FlightAware ADS-B
Sat 06:42:17 PM 41.1780 -75.4050 114° Southeast 483 556 24,300 -2,308 Descending FlightAware ADS-B
Sat 06:42:57 PM 41.1430 -75.3000 114° Southeast 459 528 23,100 -1,116 Descending FlightAware ADS-B
Sat 06:43:43 PM 41.1050 -75.1880 114° Southeast 423 487 22,700 -511 Descending FlightAware ADS-B
Sat 06:44:31 PM 41.0660 -75.0740 114° Southeast 426 490 22,300 -577 Descending FlightAware ADS-B
Sat 06:45:27 PM 41.0210 -74.9430 114° Southeast 425 489 21,700 -1,340 Descending FlightAware ADS-B
Sat 06:46:05 PM 40.9950 -74.8480 110° East 432 497 20,200 -1,902 Descending FlightAware ADS-B
Sat 06:46:49 PM 40.9800 -74.7270 99° East 437 503 19,100 -774 Descending FlightAware ADS-B
Sat 06:47:38 PM 40.9670 -74.5990 98° East 427 491 19,000 -60 Descending FlightAware ADS-B
Sat 06:48:29 PM 40.9520 -74.4670 99° East 430 495 19,000  Level FlightAware ADS-B
Sat 06:49:25 PM 40.9360 -74.3250 98° East 422 486 19,000  Level FlightAware ADS-B
Sat 06:50:40 PM 40.8999 -74.1585 106° East 338 389 19,000  Level FlightAware ADS-B
Sat 06:51:13 PM 40.8650 -74.1077 132° Southeast 333 383 19,000  Level FlightAware ADS-B
Sat 06:51:37 PM 40.8403 -74.0733 133° Southeast 328 377 19,000 -176 Level FlightAware ADS-B
Sat 06:51:47 PM 40.8288 -74.0618 143° Southeast 312 359 18,900 -1,333 Descending FlightAware ADS-B
Sat 06:52:22 PM 40.7847 -74.0327 153° Southeast 304 350 18,000 -1,791 Descending FlightAware ADS-B
Sat 06:52:54 PM 40.7429 -74.0097 157° South 305 351 16,900 -1,946 Descending FlightAware ADS-B
Sat 06:52:59 PM 40.7364 -74.0062 158° South 304 350 16,800 -1,395 Descending FlightAware ADS-B (KSNC)
Sat 06:53:37 PM 40.6900 -73.9820 158° South 295 339 15,900 -1,596 Descending FlightAware ADS-B
Sat 06:54:33 PM 40.6190 -73.9460 159° South 297 342 14,300 -1,701 Descending FlightAware ADS-B
Sat 06:54:44 PM 40.6060 -73.9340 145° Southeast 306 352 14,000 -1,579 Descending FlightAware ADS-B
Sat 06:55:30 PM 40.5560 -73.8780 140° Southeast 306 352 12,800 -1,548 Descending FlightAware ADS-B
Sat 06:56:17 PM 40.5070 -73.8210 139° Southeast 302 348 11,600 -1,546 Descending FlightAware ADS-B
Sat 06:57:07 PM 40.4530 -73.7610 140° Southeast 300 345 10,300 -1,437 Descending FlightAware ADS-B
Sat 06:57:28 PM 40.4300 -73.7360 140° Southeast 298 343 9,900 -1,333 Descending FlightAware ADS-B
Sat 06:57:52 PM 40.4170 -73.6970 114° Southeast 309 356 9,300 -1,435 Descending FlightAware ADS-B
Sat 06:58:14 PM 40.4150 -73.6590 94° East 310 357 8,800 -1,435 Descending FlightAware ADS-B
Sat 06:58:38 PM 40.4270 -73.6140 71° East 308 354 8,200 -720 Descending FlightAware ADS-B
Sat 06:59:04 PM 40.4470 -73.5730 57° Northeast 308 354 8,200  Level FlightAware ADS-B
Sat 06:59:34 PM 40.4750 -73.5340 47° Northeast 304 350 8,200 -107 Level FlightAware ADS-B
Sat 07:00:00 PM 40.5090 -73.5090 29° Northeast 303 349 8,100 -638 Descending FlightAware ADS-B
Sat 07:00:21 PM 40.5350 -73.4890 30° Northeast 298 343 7,700 -1,091 Descending FlightAware ADS-B
Sat 07:00:44 PM 40.5610 -73.4690 30° Northeast 292 336 7,300 -1,174 Descending FlightAware ADS-B
Sat 07:01:07 PM 40.5880 -73.4480 31° Northeast 288 331 6,800 -1,231 Descending FlightAware ADS-B
Sat 07:02:02 PM 40.6537 -73.4128 22° Northeast 269 310 5,700 -1,176 Descending FlightAware ADS-B (KSNC)
Sat 07:02:49 PM 40.7110 -73.4120 North 262 302 4,800 -1,238 Descending FlightAware ADS-B
Sat 07:03:05 PM 40.7300 -73.4120 360° North 260 299 4,400 -706 Descending FlightAware ADS-B
Sat 07:03:40 PM 40.7640 -73.4300 338° Northwest 252 290 4,200 -218 Descending FlightAware ADS-B
Sat 07:04:00 PM 40.7790 -73.4550 308° West 245 282 4,200  Level FlightAware ADS-B
Sat 07:04:25 PM 40.7960 -73.4850 307° West 218 251 4,200  Level FlightAware ADS-B
Sat 07:04:55 PM 40.8130 -73.5140 308° West 189 217 4,200 -310 Level FlightAware ADS-B
Sat 07:05:23 PM 40.8270 -73.5380 308° West 178 205 3,900 -732 Descending FlightAware ADS-B
Sat 07:05:36 PM 40.8300 -73.5510 287° West 172 198 3,700 -261 Descending FlightAware ADS-B
Sat 07:06:09 PM 40.8190 -73.5830 246° West 177 204 3,700 -421 Level FlightAware ADS-B
Sat 07:06:33 PM 40.8100 -73.6060 243° Southwest 174 200 3,300 -923 Descending FlightAware ADS-B
Sat 07:07:01 PM 40.7970 -73.6300 234° Southwest 177 204 2,900 -808 Descending FlightAware ADS-B
Sat 07:07:25 PM 40.7810 -73.6470 219° Southwest 180 207 2,600 -900 Descending FlightAware ADS-B
Sat 07:07:41 PM 40.7700 -73.6570 215° Southwest 181 208 2,300 -698 Descending FlightAware ADS-B
Sat 07:08:08 PM 40.7520 -73.6720 212° Southwest 184 212 2,100 -113 Descending FlightAware ADS-B
Sat 07:08:34 PM 40.7340 -73.6860 211° Southwest 164 189 2,200 -226 Climbing FlightAware ADS-B
Sat 07:09:01 PM 40.7160 -73.6990 209° Southwest 151 174 1,900 -764 Descending FlightAware ADS-B
Sat 07:09:29 PM 40.7010 -73.7110 211° Southwest 133 153 1,500 -750 Descending FlightAware ADS-B
Sat 07:10:05 PM 40.6820 -73.7260 211° Southwest 133 153 1,100 -750 Descending FlightAware ADS-B
Sat 07:10:17 PM 40.6750 -73.7320 213° Southwest 133 153 900 -769 Descending FlightAware ADS-B
Sat 07:10:44 PM 40.6610 -73.7424 209° Southwest 134 154 600 -667 Descending FlightAware ADS-B
Sat 07:11:34 PM 40.6350 -73.7630 211° Southwest 105 121 -720 Descending FlightAware ADS-B

Login

Don't have an account? Register now (free) for customized features, flight alerts, and more!